LGZA

Dionysios Solomos Airport

Zakynthos Island, Greece
TAF LGZA 230800Z 2309/2318 VRB05KT 9999 FEW016 BECMG 2309/2311 31010KT
Issued Valid From Valid To
Apr-23 @ 08:00 UTC
(an hour ago)
Apr-23 @ 09:00 UTC
(28 minutes ago)
Apr-23 @ 18:00 UTC
(in 9 hours)
Apr-23 @ 09:00 to Apr-23 @ 18:00
TAF LGZA 230800Z 2309/2318 VRB05KT 9999 FEW016
Wind Visibility Clouds
Variable at 5 knots 10,000+ meters
  • Few at 1,600' AGL
Becoming Apr-23 @ 09:00 to Apr-23 @ 18:00
BECMG 2309/2311 31010KT
Wind Visibility Clouds
310° at 10 knots 10,000+ meters
  • Few at 1,600' AGL
TAF LGZA 230800Z 2309/2318 VRB05KT 9999 FEW016 BECMG 2309/2311 31010KT
Issued Apr-23 @ 08:00 UTC
(an hour ago)
Valid From Apr-23 @ 09:00 UTC
(28 minutes ago)
Valid To Apr-23 @ 18:00 UTC
(in 9 hours)
Apr-23 @ 09:00 - Apr-23 @ 18:00
Wind Visibility
Variable at 5 knots 10,000+ meters
Clouds
  • Few at 1,600' AGL
Becoming Apr-23 @ 09:00 - Apr-23 @ 18:00
Wind Visibility
310° at 10 knots 10,000+ meters
Clouds
  • Few at 1,600' AGL